Pagina principale
METAR-TAF:

METAR-TAF

Aeroporti :

Wattisham, Inghilterra

latitudine: 52-07N, longitudine: 000-58E, altezza: 87 m

Osservazione

Il bollettino è stato emesso 34 minuti fa, alle 23:50 UTC
Vento 7 kt da nord-est
Temperature 11°C
Umidità 71%
Pressione 1023 hPa
Visibilità 10 km o più

METAR: EGUW 302350Z AUTO 05007KT 9999 NCD 11/06 Q1023

Ora: 01:24 (00:24 UTC)


TAF: mancante

Osservazioni e previsioni meteorologiche di più di 4000 aeroporti (messaggi METAR e TAF).

Le stazioni disponibili sono rappresentate dai dischi gialli e rossi sulla carta.

Puntare il mouse per vedere il nome della stazione.

Clicca sopra per visualizzare le osservazioni e previsioni meteorologiche.

Per cambiare la mappa : fare clic sui pulsanti verdi con una croce nera per ingrandire, il pulsante verde con un trattino per diminuire, o sulla freccia verde per le mappe adiacenti.


METAR-TAF: